BRC weather

San Carlos De Bariloche Airport
San Carlos de Bariloche, Río Negro Province, Argentina

Public forecast

Using degrees Celsius for public forecast. Weather courtesy of forecast.io.

Current aviation weather report (METAR) for San Carlos De Bariloche Airport

Retrieved 2020/07/04 20:00 UTC (16 minutes ago):

SAZS 042000Z 31012KT 9999 FEW020 SCT030 05/00 Q1009

Aviation forecast (TAF) for San Carlos De Bariloche Airport

Retrieved 2020/07/04 18:00 UTC (2 hours ago):

TAF SAZS 041700Z 0418/0518 VRB05KT 9999 SCT015 BKN025 TX04/0418Z TNM04/0512Z TEMPO 0418/0423 7000 RA SCT015 OVC025 BECMG 0500/0502 3000 SN BKN008 OVC020 BECMG 0507/0508 9999 SCT010 BKN030 PROB30 0509/0511 VIS0500M BCFG BECMG 0513/0515 27010KT CAVOK